createdAt,value
2019-05-19T00:00:35.726Z,15.65
2019-05-19T00:03:05.159Z,15.64
2019-05-19T00:05:34.594Z,15.63
2019-05-19T00:08:04.116Z,15.61
2019-05-19T00:10:33.538Z,15.63
2019-05-19T00:13:02.979Z,15.65
2019-05-19T00:15:32.469Z,15.66
2019-05-19T00:18:01.897Z,15.62
2019-05-19T00:20:31.330Z,15.62
2019-05-19T00:23:00.754Z,15.60
2019-05-19T00:25:30.209Z,15.59
2019-05-19T00:27:59.621Z,15.55
2019-05-19T00:30:29.053Z,15.54
2019-05-19T00:32:58.507Z,15.52
2019-05-19T00:35:27.942Z,15.51
2019-05-19T00:37:57.395Z,15.46
2019-05-19T00:40:26.809Z,15.41
2019-05-19T00:42:56.315Z,15.38
2019-05-19T00:45:25.779Z,15.35
2019-05-19T00:47:55.243Z,15.36
2019-05-19T00:50:24.665Z,15.33
2019-05-19T00:52:54.087Z,15.31
2019-05-19T00:55:23.592Z,15.26
2019-05-19T00:57:53.012Z,15.24
2019-05-19T01:00:22.436Z,15.23
2019-05-19T01:02:51.869Z,15.20
2019-05-19T01:05:21.430Z,15.20
2019-05-19T01:07:50.879Z,15.18
2019-05-19T01:10:20.308Z,15.16
2019-05-19T01:12:49.732Z,15.12
2019-05-19T01:15:19.215Z,15.13
2019-05-19T01:17:48.661Z,15.16
2019-05-19T01:20:18.117Z,15.12
2019-05-19T01:22:47.562Z,15.02
2019-05-19T01:25:16.976Z,14.92
2019-05-19T01:27:46.399Z,14.94
2019-05-19T01:30:18.273Z,14.93
2019-05-19T01:32:47.723Z,14.89
2019-05-19T01:35:17.138Z,14.87
2019-05-19T01:37:46.595Z,14.87
2019-05-19T01:40:16.072Z,14.81
2019-05-19T01:42:45.648Z,14.83
2019-05-19T01:45:15.057Z,14.83
2019-05-19T01:47:44.496Z,14.81
2019-05-19T01:50:18.105Z,14.79
2019-05-19T01:52:45.603Z,14.82
2019-05-19T01:55:15.030Z,14.83
2019-05-19T01:57:44.473Z,14.84
2019-05-19T02:00:13.905Z,14.85
2019-05-19T02:02:43.390Z,14.86
2019-05-19T02:05:12.812Z,14.89
2019-05-19T02:07:42.274Z,14.92
2019-05-19T02:10:11.687Z,14.90
2019-05-19T02:12:41.125Z,14.88
2019-05-19T02:15:10.534Z,14.88
2019-05-19T02:17:39.990Z,14.88
2019-05-19T02:20:09.441Z,14.89
2019-05-19T02:22:38.872Z,14.90
2019-05-19T02:25:08.312Z,14.92
2019-05-19T02:27:37.793Z,14.92
2019-05-19T02:30:07.367Z,14.94
2019-05-19T02:32:36.756Z,14.95
2019-05-19T02:35:06.219Z,14.95
2019-05-19T02:37:35.661Z,14.94
2019-05-19T02:40:06.152Z,14.91
2019-05-19T02:42:35.666Z,14.89
2019-05-19T02:45:05.821Z,14.82
2019-05-19T02:47:35.247Z,14.76
2019-05-19T02:50:04.779Z,14.67
2019-05-19T02:52:34.306Z,14.65
2019-05-19T02:55:03.761Z,14.58
2019-05-19T02:57:34.023Z,14.46
2019-05-19T03:00:03.647Z,14.38
2019-05-19T03:02:33.058Z,14.40
2019-05-19T03:05:02.535Z,14.40
2019-05-19T03:07:31.952Z,14.46
2019-05-19T03:10:01.372Z,14.55
2019-05-19T03:12:30.834Z,14.64
2019-05-19T03:15:00.272Z,14.73
2019-05-19T03:17:29.739Z,14.83
2019-05-19T03:19:59.169Z,14.94
2019-05-19T03:22:28.600Z,15.08
2019-05-19T03:24:58.053Z,15.16
2019-05-19T03:27:27.546Z,15.26
2019-05-19T03:29:58.765Z,15.37
2019-05-19T03:32:36.142Z,15.48
2019-05-19T03:35:05.698Z,15.59
2019-05-19T03:37:35.215Z,15.74
2019-05-19T03:40:06.687Z,15.91
2019-05-19T03:42:36.201Z,16.09
2019-05-19T03:45:05.683Z,16.27
2019-05-19T03:47:35.114Z,16.47
2019-05-19T03:50:04.554Z,16.65
2019-05-19T03:52:34.013Z,16.88
2019-05-19T03:55:03.482Z,17.09
2019-05-19T03:57:32.912Z,17.25
2019-05-19T04:00:02.365Z,17.41
2019-05-19T04:02:31.792Z,17.66
2019-05-19T04:05:01.245Z,17.99
2019-05-19T04:07:30.681Z,18.14
2019-05-19T04:10:00.166Z,18.33
2019-05-19T04:12:29.570Z,18.69
2019-05-19T04:14:59.006Z,18.99
2019-05-19T04:17:28.481Z,19.09
2019-05-19T04:19:57.935Z,19.30
2019-05-19T04:22:27.343Z,19.74
2019-05-19T04:24:56.777Z,19.95
2019-05-19T04:27:26.214Z,20.06
2019-05-19T04:29:55.677Z,20.22
2019-05-19T04:32:25.086Z,20.57
2019-05-19T04:34:54.501Z,20.73
2019-05-19T04:37:23.960Z,21.06
2019-05-19T04:39:53.403Z,21.61
2019-05-19T04:42:22.849Z,22.97
2019-05-19T04:44:52.267Z,24.57
2019-05-19T04:47:21.728Z,26.24
2019-05-19T04:49:51.203Z,26.74
2019-05-19T04:52:20.662Z,27.52
2019-05-19T04:54:50.120Z,26.70
2019-05-19T04:57:19.575Z,26.23
2019-05-19T04:59:49.018Z,26.33
2019-05-19T05:02:18.545Z,25.75
2019-05-19T05:04:47.996Z,24.79
2019-05-19T05:07:17.539Z,24.07
2019-05-19T05:09:47.065Z,23.81
2019-05-19T05:12:16.651Z,24.01
2019-05-19T05:14:46.167Z,24.72
2019-05-19T05:17:15.605Z,25.42
2019-05-19T05:19:45.046Z,26.60
2019-05-19T05:22:22.092Z,27.70
2019-05-19T05:24:45.794Z,28.86
2019-05-19T05:27:15.308Z,30.07
2019-05-19T05:29:44.746Z,31.57
2019-05-19T05:32:14.172Z,32.77
2019-05-19T05:34:43.757Z,33.70
2019-05-19T05:37:13.401Z,34.19
2019-05-19T05:39:42.836Z,34.39
2019-05-19T05:42:12.344Z,35.29
2019-05-19T05:44:41.883Z,36.11
2019-05-19T05:47:11.453Z,35.90
2019-05-19T05:49:40.941Z,36.65
2019-05-19T05:52:10.395Z,36.65
2019-05-19T05:54:39.831Z,36.33
2019-05-19T05:57:09.412Z,35.50
2019-05-19T05:59:38.945Z,35.46
2019-05-19T06:02:08.522Z,34.82
2019-05-19T06:04:37.995Z,34.82
2019-05-19T06:07:07.452Z,34.77
2019-05-19T06:09:36.851Z,33.60
2019-05-19T06:12:06.450Z,32.64
2019-05-19T06:14:35.918Z,31.80
2019-05-19T06:17:05.459Z,31.35
2019-05-19T06:19:34.996Z,31.17
2019-05-19T06:22:04.459Z,32.11
2019-05-19T06:24:33.944Z,32.56
2019-05-19T06:27:03.585Z,32.88
2019-05-19T06:29:33.002Z,31.89
2019-05-19T06:32:09.644Z,31.02
2019-05-19T06:34:39.118Z,29.99
2019-05-19T06:37:08.591Z,29.39
2019-05-19T06:39:38.040Z,28.86
2019-05-19T06:42:07.473Z,29.01
2019-05-19T06:44:36.910Z,28.81
2019-05-19T06:47:06.551Z,28.75
2019-05-19T06:49:36.093Z,28.84
2019-05-19T06:52:05.547Z,28.44
2019-05-19T06:54:35.002Z,28.28
2019-05-19T06:57:04.431Z,29.16
2019-05-19T06:59:33.863Z,30.27
2019-05-19T07:02:03.314Z,31.74
2019-05-19T07:04:32.715Z,32.93
2019-05-19T07:07:02.326Z,34.03
2019-05-19T07:09:31.830Z,34.63
2019-05-19T07:12:01.286Z,35.62
2019-05-19T07:14:30.711Z,35.56
2019-05-19T07:17:00.177Z,35.78
2019-05-19T07:19:29.613Z,35.65
2019-05-19T07:21:59.027Z,35.15
2019-05-19T07:24:28.501Z,35.12
2019-05-19T07:26:57.938Z,34.98
2019-05-19T07:29:27.408Z,35.41
2019-05-19T07:31:56.927Z,35.22
2019-05-19T07:34:26.375Z,33.70
2019-05-19T07:36:56.039Z,32.98
2019-05-19T07:39:25.587Z,32.98
2019-05-19T07:41:55.031Z,32.03
2019-05-19T07:44:24.484Z,31.01
2019-05-19T07:46:53.919Z,30.52
2019-05-19T07:49:23.381Z,30.34
2019-05-19T07:51:52.865Z,30.37
2019-05-19T07:54:22.447Z,30.96
2019-05-19T07:56:51.974Z,31.12
2019-05-19T07:59:21.394Z,30.92
2019-05-19T08:01:51.088Z,30.44
2019-05-19T08:04:20.836Z,30.55
2019-05-19T08:06:50.282Z,30.82
2019-05-19T08:09:19.711Z,30.70
2019-05-19T08:11:49.365Z,30.62
2019-05-19T08:14:18.792Z,30.96
2019-05-19T08:16:48.558Z,30.64
2019-05-19T08:19:18.034Z,30.38
2019-05-19T08:21:47.539Z,30.50
2019-05-19T08:24:17.051Z,30.43
2019-05-19T08:26:46.516Z,30.34
2019-05-19T08:29:16.033Z,30.33
2019-05-19T08:33:33.782Z,29.93
2019-05-19T08:36:03.331Z,29.93
2019-05-19T08:38:32.834Z,29.82
2019-05-19T08:41:02.424Z,29.90
2019-05-19T08:43:31.939Z,29.88
2019-05-19T08:46:01.386Z,29.77
2019-05-19T08:48:30.843Z,29.56
2019-05-19T08:51:00.325Z,29.51
2019-05-19T08:53:29.735Z,29.52
2019-05-19T08:55:59.184Z,29.70
2019-05-19T08:58:28.635Z,29.88
2019-05-19T09:00:58.097Z,29.83
2019-05-19T09:03:27.557Z,29.82
2019-05-19T09:05:56.972Z,29.85
2019-05-19T09:08:28.074Z,30.14
2019-05-19T09:10:58.635Z,30.37
2019-05-19T09:13:29.050Z,30.66
2019-05-19T09:15:58.530Z,30.73
2019-05-19T09:18:27.983Z,30.85
2019-05-19T09:20:57.914Z,31.15
2019-05-19T09:23:30.934Z,31.08
2019-05-19T09:26:00.380Z,31.04
2019-05-19T09:28:29.941Z,31.17
2019-05-19T09:30:59.373Z,31.27
2019-05-19T09:33:28.884Z,31.04
2019-05-19T09:35:58.321Z,31.02
2019-05-19T09:38:27.737Z,31.28
2019-05-19T09:40:57.204Z,31.45
2019-05-19T09:43:26.606Z,31.70
2019-05-19T09:45:56.043Z,31.92
2019-05-19T09:48:25.484Z,32.33
2019-05-19T09:50:54.885Z,32.68
2019-05-19T09:53:24.313Z,33.08
2019-05-19T09:55:53.890Z,33.15
2019-05-19T09:58:23.309Z,32.85
2019-05-19T10:00:52.839Z,32.91
2019-05-19T10:03:22.427Z,33.04
2019-05-19T10:05:52.048Z,33.29
2019-05-19T10:08:35.210Z,33.28
2019-05-19T10:11:54.264Z,33.58
2019-05-19T10:14:23.831Z,33.99
2019-05-19T10:16:53.356Z,34.54
2019-05-19T10:19:22.898Z,34.89
2019-05-19T10:21:52.358Z,35.18
2019-05-19T10:24:22.308Z,35.13
2019-05-19T10:26:52.049Z,35.39
2019-05-19T10:29:21.624Z,34.87
2019-05-19T10:31:54.248Z,34.64
2019-05-19T10:34:22.312Z,34.37
2019-05-19T10:36:51.830Z,34.57
2019-05-19T10:39:21.216Z,34.59
2019-05-19T10:41:50.727Z,34.89
2019-05-19T10:44:20.185Z,34.61
2019-05-19T10:46:49.655Z,34.56
2019-05-19T10:49:19.174Z,35.09
2019-05-19T10:51:48.680Z,35.54
2019-05-19T10:54:18.300Z,35.77
2019-05-19T10:56:47.821Z,36.20
2019-05-19T10:59:17.318Z,36.58
2019-05-19T11:01:46.747Z,36.23
2019-05-19T11:04:16.180Z,36.12
2019-05-19T11:06:45.787Z,36.06
2019-05-19T11:09:15.197Z,36.68
2019-05-19T11:11:44.801Z,36.62
2019-05-19T11:14:14.244Z,36.98
2019-05-19T11:16:43.739Z,37.00
2019-05-19T11:19:13.228Z,37.03
2019-05-19T11:21:42.721Z,37.50
2019-05-19T11:24:12.179Z,37.46
2019-05-19T11:26:41.646Z,37.76
2019-05-19T11:29:11.082Z,37.36
2019-05-19T11:31:40.663Z,36.76
2019-05-19T11:34:10.203Z,36.17
2019-05-19T11:36:39.674Z,35.54
2019-05-19T11:39:10.342Z,34.83
2019-05-19T11:41:39.869Z,34.82
2019-05-19T11:44:11.974Z,34.79
2019-05-19T11:46:41.440Z,35.01
2019-05-19T11:49:10.976Z,35.14
2019-05-19T11:51:41.441Z,34.65
2019-05-19T11:54:10.980Z,34.43
2019-05-19T11:56:40.665Z,33.95
2019-05-19T11:59:10.228Z,34.02
2019-05-19T12:01:39.763Z,34.24
2019-05-19T12:04:09.163Z,34.92
2019-05-19T12:06:40.151Z,35.52
2019-05-19T12:09:09.639Z,36.36
2019-05-19T12:11:39.074Z,36.28
2019-05-19T12:14:08.495Z,36.35
2019-05-19T12:16:37.900Z,36.84
2019-05-19T12:19:07.346Z,37.21
2019-05-19T12:21:36.805Z,36.93
2019-05-19T12:24:06.245Z,36.66
2019-05-19T12:26:35.662Z,36.64
2019-05-19T12:29:05.104Z,36.56
2019-05-19T12:31:34.521Z,36.34
2019-05-19T12:34:04.154Z,35.74
2019-05-19T12:36:34.083Z,35.97
2019-05-19T12:39:04.634Z,36.64
2019-05-19T12:41:34.528Z,36.88
2019-05-19T12:44:04.653Z,36.12
2019-05-19T12:46:34.447Z,36.55
2019-05-19T12:49:03.891Z,37.59
2019-05-19T12:51:34.349Z,38.49
2019-05-19T12:54:03.792Z,39.39
2019-05-19T12:56:39.768Z,39.80
2019-05-19T12:59:04.639Z,39.68
2019-05-19T13:01:34.051Z,39.59
2019-05-19T13:04:03.595Z,39.65
2019-05-19T13:06:33.034Z,39.76
2019-05-19T13:09:02.487Z,39.60
2019-05-19T13:11:31.894Z,39.62
2019-05-19T13:14:01.316Z,39.31
2019-05-19T13:16:30.757Z,38.25
2019-05-19T13:19:00.189Z,36.82
2019-05-19T13:21:29.627Z,35.93
2019-05-19T13:23:59.133Z,35.51
2019-05-19T13:26:28.676Z,35.59
2019-05-19T13:28:58.146Z,36.49
2019-05-19T13:31:27.538Z,37.26
2019-05-19T13:33:56.967Z,37.39
2019-05-19T13:36:26.406Z,37.59
2019-05-19T13:38:55.827Z,37.41
2019-05-19T13:41:25.293Z,37.25
2019-05-19T13:43:54.764Z,37.10
2019-05-19T13:46:24.268Z,37.01
2019-05-19T13:48:53.787Z,36.53
2019-05-19T13:51:23.436Z,36.64
2019-05-19T13:53:52.878Z,36.25
2019-05-19T13:56:22.313Z,36.00
2019-05-19T13:58:51.743Z,36.05
2019-05-19T14:01:28.453Z,35.69
2019-05-19T14:03:52.447Z,34.97
2019-05-19T14:06:22.098Z,34.61
2019-05-19T14:08:51.526Z,34.26
2019-05-19T14:11:20.951Z,33.86
2019-05-19T14:13:50.440Z,33.52
2019-05-19T14:16:19.985Z,33.20
2019-05-19T14:18:49.465Z,33.09
2019-05-19T14:21:18.908Z,32.93
2019-05-19T14:23:48.368Z,32.73
2019-05-19T14:26:17.792Z,32.75
2019-05-19T14:28:47.315Z,32.91
2019-05-19T14:31:16.750Z,32.96
2019-05-19T14:33:46.282Z,32.75
2019-05-19T14:36:15.756Z,32.45
2019-05-19T14:39:05.384Z,32.20
2019-05-19T14:41:35.203Z,31.87
2019-05-19T14:44:04.965Z,31.87
2019-05-19T14:46:34.394Z,31.40
2019-05-19T14:49:03.889Z,31.06
2019-05-19T14:51:33.541Z,30.83
2019-05-19T14:54:03.031Z,30.73
2019-05-19T14:56:33.758Z,30.44
2019-05-19T14:59:03.383Z,30.36
2019-05-19T15:01:32.806Z,30.19
2019-05-19T15:04:02.251Z,30.16
2019-05-19T15:06:31.721Z,30.07
2019-05-19T15:09:01.201Z,29.97
2019-05-19T15:11:30.637Z,29.76
2019-05-19T15:14:00.201Z,29.59
2019-05-19T15:16:29.790Z,29.38
2019-05-19T15:18:59.238Z,29.07
2019-05-19T15:21:31.768Z,28.83
2019-05-19T15:23:59.911Z,28.61
2019-05-19T15:26:29.501Z,28.34
2019-05-19T15:28:58.962Z,28.07
2019-05-19T15:31:28.514Z,27.94
2019-05-19T15:33:57.926Z,27.96
2019-05-19T15:36:27.380Z,28.05
2019-05-19T15:38:56.901Z,28.06
2019-05-19T15:41:26.568Z,28.04
2019-05-19T15:43:58.599Z,27.91
2019-05-19T15:46:28.073Z,27.91
2019-05-19T15:48:57.651Z,27.89
2019-05-19T15:51:29.012Z,27.95
2019-05-19T15:53:58.459Z,27.96
2019-05-19T15:56:27.934Z,28.03
2019-05-19T15:58:57.427Z,27.90
2019-05-19T16:01:27.005Z,27.82
2019-05-19T16:03:56.660Z,27.84
2019-05-19T16:06:26.137Z,27.81
2019-05-19T16:08:55.744Z,27.87
2019-05-19T16:11:25.206Z,27.87
2019-05-19T16:13:54.677Z,27.79
2019-05-19T16:16:24.326Z,27.66
2019-05-19T16:18:53.753Z,27.57
2019-05-19T16:21:23.238Z,27.41
2019-05-19T16:23:52.704Z,27.30
2019-05-19T16:26:22.206Z,27.18
2019-05-19T16:28:51.713Z,27.05
2019-05-19T16:31:21.252Z,27.01
2019-05-19T16:33:50.803Z,26.94
2019-05-19T16:36:20.252Z,26.93
2019-05-19T16:38:49.678Z,26.77
2019-05-19T16:41:19.181Z,26.79
2019-05-19T16:43:48.842Z,26.71
2019-05-19T16:46:18.274Z,26.67
2019-05-19T16:48:47.789Z,26.67
2019-05-19T16:51:17.254Z,26.71
2019-05-19T16:53:48.340Z,26.71
2019-05-19T16:56:17.822Z,26.70
2019-05-19T16:58:47.304Z,26.70
2019-05-19T17:01:19.917Z,26.76
2019-05-19T17:03:48.052Z,26.79
2019-05-19T17:06:17.676Z,26.80
2019-05-19T17:08:47.164Z,26.80
2019-05-19T17:11:18.651Z,26.70
2019-05-19T17:13:48.033Z,26.64
2019-05-19T17:16:17.537Z,26.56
2019-05-19T17:18:46.957Z,26.49
2019-05-19T17:21:16.540Z,26.42
2019-05-19T17:23:46.081Z,26.38
2019-05-19T17:26:15.554Z,26.32
2019-05-19T17:28:59.606Z,26.17
2019-05-19T17:31:16.370Z,26.07
2019-05-19T17:33:45.914Z,26.07
2019-05-19T17:36:15.359Z,26.04
2019-05-19T17:38:44.860Z,25.89
2019-05-19T17:41:14.436Z,25.89
2019-05-19T17:43:43.912Z,25.84
2019-05-19T17:46:13.459Z,25.80
2019-05-19T17:48:43.081Z,25.77
2019-05-19T17:51:12.508Z,25.76
2019-05-19T17:53:42.497Z,25.81
2019-05-19T17:56:11.919Z,25.81
2019-05-19T17:58:41.384Z,25.78
2019-05-19T18:01:10.802Z,25.78
2019-05-19T18:03:40.309Z,25.77
2019-05-19T18:06:09.794Z,25.75
2019-05-19T18:08:39.332Z,25.69
2019-05-19T18:11:08.893Z,25.62
2019-05-19T18:13:38.514Z,25.62
2019-05-19T18:16:08.027Z,25.68
2019-05-19T18:18:37.620Z,25.63
2019-05-19T18:21:07.159Z,25.54
2019-05-19T18:23:36.630Z,25.48
2019-05-19T18:26:07.315Z,25.50
2019-05-19T18:28:37.063Z,25.52
2019-05-19T18:31:06.612Z,25.53
2019-05-19T18:33:36.149Z,25.50
2019-05-19T18:36:05.581Z,25.47
2019-05-19T18:38:35.122Z,25.51
2019-05-19T18:41:04.640Z,25.52
2019-05-19T18:43:34.173Z,25.51
2019-05-19T18:46:03.674Z,25.46
2019-05-19T18:48:33.143Z,25.39
2019-05-19T18:51:02.597Z,25.44
2019-05-19T18:53:32.080Z,25.37
2019-05-19T18:56:01.588Z,25.30
2019-05-19T18:58:31.095Z,25.20
2019-05-19T19:01:00.538Z,25.06
2019-05-19T19:03:30.109Z,24.96
2019-05-19T19:05:59.564Z,24.76
2019-05-19T19:08:29.113Z,24.79
2019-05-19T19:10:58.993Z,24.70
2019-05-19T19:13:29.219Z,24.56
2019-05-19T19:15:58.686Z,24.44
2019-05-19T19:18:28.113Z,24.31
2019-05-19T19:20:57.576Z,24.21
2019-05-19T19:23:27.137Z,24.11
2019-05-19T19:25:56.637Z,24.00
2019-05-19T19:28:26.099Z,23.94
2019-05-19T19:30:55.600Z,23.80
2019-05-19T19:33:25.063Z,23.79
2019-05-19T19:35:54.635Z,23.74
2019-05-19T19:38:24.169Z,23.72
2019-05-19T19:40:54.377Z,23.69
2019-05-19T19:43:24.109Z,23.58
2019-05-19T19:45:53.567Z,23.56
2019-05-19T19:48:22.987Z,23.52
2019-05-19T19:50:52.508Z,23.52
2019-05-19T19:53:22.064Z,23.48
2019-05-19T19:55:51.678Z,23.44
2019-05-19T19:58:21.395Z,23.40
2019-05-19T20:00:51.110Z,23.45
2019-05-19T20:03:20.540Z,23.41
2019-05-19T20:05:50.020Z,23.35
2019-05-19T20:08:19.469Z,23.33
2019-05-19T20:10:49.033Z,23.27
2019-05-19T20:13:18.485Z,23.27
2019-05-19T20:15:48.009Z,23.23
2019-05-19T20:18:17.448Z,23.22
2019-05-19T20:20:46.947Z,23.23
2019-05-19T20:23:16.591Z,23.24
2019-05-19T20:25:46.010Z,23.24
2019-05-19T20:28:15.424Z,23.23
2019-05-19T20:30:44.849Z,23.21
2019-05-19T20:33:14.404Z,23.23
2019-05-19T20:35:43.967Z,23.25
2019-05-19T20:38:13.535Z,23.24
2019-05-19T20:40:43.479Z,23.18
2019-05-19T20:43:12.998Z,23.17
2019-05-19T20:45:42.481Z,23.12
2019-05-19T20:48:11.929Z,23.10
2019-05-19T20:50:41.525Z,23.07
2019-05-19T20:53:11.431Z,23.10
2019-05-19T20:55:40.941Z,23.15
2019-05-19T20:58:10.400Z,23.15
2019-05-19T21:00:49.826Z,23.09
2019-05-19T21:03:10.990Z,23.17
2019-05-19T21:05:40.441Z,23.22
2019-05-19T21:08:09.901Z,23.31
2019-05-19T21:10:39.331Z,23.29
2019-05-19T21:13:08.794Z,23.25
2019-05-19T21:15:38.295Z,23.24
2019-05-19T21:18:07.812Z,23.15
2019-05-19T21:20:37.266Z,23.14
2019-05-19T21:23:06.693Z,23.14
2019-05-19T21:25:36.451Z,23.07
2019-05-19T21:28:05.918Z,23.04
2019-05-19T21:30:35.388Z,23.06
2019-05-19T21:33:04.820Z,22.96
2019-05-19T21:35:34.330Z,22.91
2019-05-19T21:38:03.826Z,22.84
2019-05-19T21:40:33.294Z,22.76
2019-05-19T21:43:02.754Z,22.68
2019-05-19T21:45:32.210Z,22.52
2019-05-19T21:48:01.656Z,22.46
2019-05-19T21:50:31.140Z,22.38
2019-05-19T21:53:00.579Z,22.27
2019-05-19T21:55:30.182Z,22.20
2019-05-19T21:57:59.699Z,22.13
2019-05-19T22:00:31.394Z,22.23
2019-05-19T22:03:00.935Z,22.23
2019-05-19T22:05:30.469Z,22.21
2019-05-19T22:08:03.196Z,22.19
2019-05-19T22:10:32.904Z,22.10
2019-05-19T22:13:02.506Z,22.09
2019-05-19T22:15:32.172Z,22.16
2019-05-19T22:18:01.770Z,22.48
2019-05-19T22:20:31.270Z,22.82
2019-05-19T22:23:00.679Z,23.04
2019-05-19T22:25:30.241Z,23.20
2019-05-19T22:27:59.697Z,23.31
2019-05-19T22:30:29.455Z,23.45
2019-05-19T22:32:59.026Z,23.47
2019-05-19T22:35:28.574Z,23.50
2019-05-19T22:37:58.115Z,23.54
2019-05-19T22:40:27.575Z,23.55
2019-05-19T22:42:57.142Z,23.50
2019-05-19T22:45:26.785Z,23.49
2019-05-19T22:47:56.239Z,23.62
2019-05-19T22:50:25.680Z,23.64
2019-05-19T22:52:55.150Z,23.83
2019-05-19T22:55:24.716Z,23.88
2019-05-19T22:57:54.176Z,23.96
2019-05-19T23:00:23.706Z,24.09
2019-05-19T23:02:53.387Z,24.07
2019-05-19T23:05:22.874Z,24.07
2019-05-19T23:07:52.507Z,24.13
2019-05-19T23:10:22.141Z,24.21
2019-05-19T23:12:51.573Z,24.20
2019-05-19T23:15:21.255Z,24.09
2019-05-19T23:17:50.723Z,24.06
2019-05-19T23:20:20.216Z,23.97
2019-05-19T23:22:49.814Z,23.92
2019-05-19T23:25:19.321Z,23.66
2019-05-19T23:27:48.774Z,23.72
2019-05-19T23:30:18.333Z,23.58
2019-05-19T23:32:47.891Z,23.49
2019-05-19T23:35:17.474Z,23.38
2019-05-19T23:37:47.006Z,23.29
2019-05-19T23:40:16.522Z,23.31
2019-05-19T23:42:45.949Z,23.24
2019-05-19T23:45:15.796Z,23.17
2019-05-19T23:47:45.349Z,23.11
2019-05-19T23:50:14.908Z,23.06
2019-05-19T23:52:44.369Z,23.06
2019-05-19T23:55:14.026Z,23.04
2019-05-19T23:57:43.561Z,22.95
